This is the latest recevied weather packets stored in our database for station/object KC1TEM-13. If no packets are shown the sender has not sent any weather packets the latest 10 day(s).
| Time | Temp. | Humidity | Pressure | Rain* | Wind** | Luminosity | Snow |
|---|---|---|---|---|---|---|---|
| 1777906834 | 20° C | 30% | 1008.4 hPa | 0 mm | - | 777 W/m² | - |
| 1777904712 | 18.89° C | 34% | 1008.9 hPa | 0 mm | - | 748 W/m² | - |
| 1777903195 | 17.78° C | 35% | 1009.2 hPa | 0 mm | - | 689 W/m² | - |
| 1777901681 | 17.78° C | 34% | 1009.2 hPa | 0 mm | - | 667 W/m² | - |
| 1777901378 | 17.22° C | 36% | 1009.3 hPa | 0 mm | - | 667 W/m² | - |
| 1777901076 | 16.67° C | 36% | 1009.5 hPa | 0 mm | - | 595 W/m² | - |
| 1777900772 | 16.67° C | 36% | 1009.4 hPa | 0 mm | - | 566 W/m² | - |
| 1777900470 | 16.11° C | 39% | 1009.8 hPa | 0 mm | - | 539 W/m² | - |
| 1777900167 | 16.11° C | 38% | 1009.8 hPa | 0 mm | - | 356 W/m² | - |
| 1777899258 | 15° C | 40% | 1009.8 hPa | 0 mm | - | 394 W/m² | - |
| 1777898349 | 13.89° C | 44% | 1009.9 hPa | 0 mm | - | 333 W/m² | - |
| 1777898047 | 13.33° C | 45% | 1009.9 hPa | 0 mm | - | 249 W/m² | - |
| 1777897743 | 13.33° C | 43% | 1010.1 hPa | 0 mm | - | 282 W/m² | - |
| 1777897439 | 12.78° C | 44% | 1010.2 hPa | 0 mm | - | 332 W/m² | - |
| 1777897135 | 12.78° C | 44% | 1010.2 hPa | 0 mm | - | 294 W/m² | - |
| 1777896831 | 12.78° C | 44% | 1010.3 hPa | 0 mm | - | 230 W/m² | - |
| 1777896529 | 11.67° C | 47% | 1010.2 hPa | 0 mm | - | 303 W/m² | - |
| 1777895924 | 11.11° C | 51% | 1010.2 hPa | 0 mm | - | 220 W/m² | - |
| 1777895319 | 9.44° C | 55% | 1010.4 hPa | 0 mm | - | 223 W/m² | - |
| 1777894714 | 10° C | 52% | 1010.5 hPa | 0 mm | - | 65 W/m² | - |
| 1777894410 | 10° C | 52% | 1010.4 hPa | 0 mm | - | 82 W/m² | - |
| 1777894108 | 9.44° C | 54% | 1010.6 hPa | 0 mm | - | 225 W/m² | - |
| 1777893805 | 8.89° C | 57% | 1010.5 hPa | 0 mm | - | 91 W/m² | - |
| 1777893501 | 8.89° C | 56% | 1010.6 hPa | 0 mm | - | 164 W/m² | - |
| 1777893197 | 8.33° C | 56% | 1010.8 hPa | 0 mm | - | 76 W/m² | - |
* Rain latest hour (hover to see other rain measurements)
** Current wind speed in m/s (hover to see current wind gust speed)